sensor_id;sensor_type;location;lat;lon;timestamp;P1;durP1;ratioP1;P2;durP2;ratioP2
84476;SDS011;74700;43.228;0.108;2024-03-29T00:00:52;4.68;;;3.05;;
84476;SDS011;74700;43.228;0.108;2024-03-29T00:03:18;2.58;;;1.67;;
84476;SDS011;74700;43.228;0.108;2024-03-29T00:05:44;1.00;;;1.00;;
84476;SDS011;74700;43.228;0.108;2024-03-29T00:08:10;1.00;;;1.00;;
84476;SDS011;74700;43.228;0.108;2024-03-29T00:10:36;0.70;;;0.70;;
84476;SDS011;74700;43.228;0.108;2024-03-29T00:13:02;1.38;;;1.05;;
84476;SDS011;74700;43.228;0.108;2024-03-29T00:15:28;0.73;;;0.73;;
84476;SDS011;74700;43.228;0.108;2024-03-29T00:17:54;1.00;;;1.00;;
84476;SDS011;74700;43.228;0.108;2024-03-29T00:20:20;0.80;;;0.80;;
84476;SDS011;74700;43.228;0.108;2024-03-29T00:22:46;0.73;;;0.73;;
84476;SDS011;74700;43.228;0.108;2024-03-29T00:25:12;0.80;;;0.80;;
84476;SDS011;74700;43.228;0.108;2024-03-29T00:27:38;0.65;;;0.65;;
84476;SDS011;74700;43.228;0.108;2024-03-29T00:30:05;0.98;;;0.98;;
84476;SDS011;74700;43.228;0.108;2024-03-29T00:32:31;0.82;;;0.82;;
84476;SDS011;74700;43.228;0.108;2024-03-29T00:34:57;1.27;;;0.95;;
84476;SDS011;74700;43.228;0.108;2024-03-29T00:37:23;0.93;;;0.70;;
84476;SDS011;74700;43.228;0.108;2024-03-29T00:39:49;0.70;;;0.70;;
84476;SDS011;74700;43.228;0.108;2024-03-29T00:42:16;0.77;;;0.77;;
84476;SDS011;74700;43.228;0.108;2024-03-29T00:44:43;0.75;;;0.75;;
84476;SDS011;74700;43.228;0.108;2024-03-29T00:47:09;4.68;;;1.25;;
84476;SDS011;74700;43.228;0.108;2024-03-29T00:49:35;7.15;;;1.17;;
84476;SDS011;74700;43.228;0.108;2024-03-29T00:52:02;0.80;;;0.80;;
84476;SDS011;74700;43.228;0.108;2024-03-29T00:54:28;0.90;;;0.90;;
84476;SDS011;74700;43.228;0.108;2024-03-29T00:56:55;0.80;;;0.80;;
84476;SDS011;74700;43.228;0.108;2024-03-29T00:59:21;2.58;;;1.15;;
84476;SDS011;74700;43.228;0.108;2024-03-29T01:01:47;3.08;;;1.08;;
84476;SDS011;74700;43.228;0.108;2024-03-29T01:04:14;2.47;;;1.10;;
84476;SDS011;74700;43.228;0.108;2024-03-29T01:06:40;1.23;;;0.90;;
84476;SDS011;74700;43.228;0.108;2024-03-29T01:09:06;0.80;;;0.80;;
84476;SDS011;74700;43.228;0.108;2024-03-29T01:11:32;0.73;;;0.73;;
84476;SDS011;74700;43.228;0.108;2024-03-29T01:13:58;3.15;;;1.02;;
84476;SDS011;74700;43.228;0.108;2024-03-29T01:16:24;1.38;;;1.27;;
84476;SDS011;74700;43.228;0.108;2024-03-29T01:18:50;1.10;;;1.10;;
84476;SDS011;74700;43.228;0.108;2024-03-29T01:21:17;0.77;;;0.77;;
84476;SDS011;74700;43.228;0.108;2024-03-29T01:23:44;1.33;;;1.00;;
84476;SDS011;74700;43.228;0.108;2024-03-29T01:26:10;2.60;;;0.60;;
84476;SDS011;74700;43.228;0.108;2024-03-29T01:28:37;0.90;;;0.90;;
84476;SDS011;74700;43.228;0.108;2024-03-29T01:31:04;1.85;;;0.85;;
84476;SDS011;74700;43.228;0.108;2024-03-29T01:33:30;1.70;;;0.88;;
84476;SDS011;74700;43.228;0.108;2024-03-29T01:36:02;0.85;;;0.85;;
84476;SDS011;74700;43.228;0.108;2024-03-29T01:38:29;2.30;;;0.88;;
84476;SDS011;74700;43.228;0.108;2024-03-29T01:40:55;1.10;;;1.10;;
84476;SDS011;74700;43.228;0.108;2024-03-29T01:43:21;5.18;;;0.90;;
84476;SDS011;74700;43.228;0.108;2024-03-29T01:45:47;1.02;;;0.98;;
84476;SDS011;74700;43.228;0.108;2024-03-29T01:48:14;0.80;;;0.80;;
84476;SDS011;74700;43.228;0.108;2024-03-29T01:50:41;1.00;;;1.00;;
84476;SDS011;74700;43.228;0.108;2024-03-29T01:53:07;2.40;;;1.10;;
84476;SDS011;74700;43.228;0.108;2024-03-29T01:55:34;2.70;;;1.27;;
84476;SDS011;74700;43.228;0.108;2024-03-29T01:58:01;1.48;;;1.10;;
84476;SDS011;74700;43.228;0.108;2024-03-29T02:00:27;1.58;;;1.20;;
84476;SDS011;74700;43.228;0.108;2024-03-29T02:02:54;2.83;;;1.08;;
84476;SDS011;74700;43.228;0.108;2024-03-29T02:05:21;2.83;;;1.42;;
84476;SDS011;74700;43.228;0.108;2024-03-29T02:07:47;2.85;;;1.27;;
84476;SDS011;74700;43.228;0.108;2024-03-29T02:10:14;2.58;;;1.35;;
84476;SDS011;74700;43.228;0.108;2024-03-29T02:12:40;1.85;;;1.00;;
84476;SDS011;74700;43.228;0.108;2024-03-29T02:15:06;2.35;;;1.30;;
84476;SDS011;74700;43.228;0.108;2024-03-29T02:17:33;1.85;;;1.40;;
84476;SDS011;74700;43.228;0.108;2024-03-29T02:19:59;1.27;;;1.20;;
84476;SDS011;74700;43.228;0.108;2024-03-29T02:22:25;2.30;;;1.52;;
84476;SDS011;74700;43.228;0.108;2024-03-29T02:24:53;4.15;;;1.55;;
84476;SDS011;74700;43.228;0.108;2024-03-29T02:27:20;1.52;;;1.42;;
84476;SDS011;74700;43.228;0.108;2024-03-29T02:29:47;5.30;;;1.38;;
84476;SDS011;74700;43.228;0.108;2024-03-29T02:32:14;1.63;;;1.50;;
84476;SDS011;74700;43.228;0.108;2024-03-29T02:34:40;4.65;;;1.27;;
84476;SDS011;74700;43.228;0.108;2024-03-29T02:37:06;7.85;;;1.60;;
84476;SDS011;74700;43.228;0.108;2024-03-29T02:39:32;2.85;;;1.10;;
84476;SDS011;74700;43.228;0.108;2024-03-29T02:41:58;1.45;;;1.10;;
84476;SDS011;74700;43.228;0.108;2024-03-29T02:44:24;1.33;;;1.23;;
84476;SDS011;74700;43.228;0.108;2024-03-29T02:46:50;1.40;;;1.30;;
84476;SDS011;74700;43.228;0.108;2024-03-29T02:49:17;4.63;;;1.58;;
84476;SDS011;74700;43.228;0.108;2024-03-29T02:51:43;1.30;;;1.23;;
84476;SDS011;74700;43.228;0.108;2024-03-29T02:54:09;3.03;;;1.30;;
84476;SDS011;74700;43.228;0.108;2024-03-29T02:56:36;4.90;;;1.50;;
84476;SDS011;74700;43.228;0.108;2024-03-29T02:59:02;2.92;;;1.40;;
84476;SDS011;74700;43.228;0.108;2024-03-29T03:01:28;1.70;;;0.95;;
84476;SDS011;74700;43.228;0.108;2024-03-29T03:03:54;4.18;;;1.27;;
84476;SDS011;74700;43.228;0.108;2024-03-29T03:06:20;2.38;;;1.27;;
84476;SDS011;74700;43.228;0.108;2024-03-29T03:08:46;1.88;;;1.27;;
84476;SDS011;74700;43.228;0.108;2024-03-29T03:11:30;3.08;;;1.20;;
84476;SDS011;74700;43.228;0.108;2024-03-29T03:13:56;3.78;;;1.50;;
84476;SDS011;74700;43.228;0.108;2024-03-29T03:16:22;1.10;;;1.08;;
84476;SDS011;74700;43.228;0.108;2024-03-29T03:18:50;3.83;;;1.38;;
84476;SDS011;74700;43.228;0.108;2024-03-29T03:21:16;5.15;;;1.65;;
84476;SDS011;74700;43.228;0.108;2024-03-29T03:23:42;4.38;;;1.40;;
84476;SDS011;74700;43.228;0.108;2024-03-29T03:26:08;3.40;;;1.45;;
84476;SDS011;74700;43.228;0.108;2024-03-29T03:28:34;3.40;;;1.55;;
84476;SDS011;74700;43.228;0.108;2024-03-29T03:31:00;1.85;;;1.20;;
84476;SDS011;74700;43.228;0.108;2024-03-29T03:33:26;2.70;;;1.83;;
84476;SDS011;74700;43.228;0.108;2024-03-29T03:35:52;1.52;;;1.27;;
84476;SDS011;74700;43.228;0.108;2024-03-29T03:38:19;4.40;;;1.40;;
84476;SDS011;74700;43.228;0.108;2024-03-29T03:40:45;1.42;;;1.30;;
84476;SDS011;74700;43.228;0.108;2024-03-29T03:43:11;2.17;;;1.40;;
84476;SDS011;74700;43.228;0.108;2024-03-29T03:45:40;2.03;;;1.40;;
84476;SDS011;74700;43.228;0.108;2024-03-29T03:48:07;2.25;;;1.40;;
84476;SDS011;74700;43.228;0.108;2024-03-29T03:50:34;1.42;;;1.40;;
84476;SDS011;74700;43.228;0.108;2024-03-29T03:53:00;2.17;;;1.20;;
84476;SDS011;74700;43.228;0.108;2024-03-29T03:55:27;2.92;;;1.33;;
84476;SDS011;74700;43.228;0.108;2024-03-29T03:57:53;4.30;;;1.80;;
84476;SDS011;74700;43.228;0.108;2024-03-29T04:00:19;3.33;;;1.48;;
84476;SDS011;74700;43.228;0.108;2024-03-29T04:02:49;3.45;;;1.40;;
84476;SDS011;74700;43.228;0.108;2024-03-29T04:05:16;1.60;;;1.50;;
84476;SDS011;74700;43.228;0.108;2024-03-29T04:07:42;1.75;;;1.65;;
84476;SDS011;74700;43.228;0.108;2024-03-29T04:10:08;1.50;;;1.35;;
84476;SDS011;74700;43.228;0.108;2024-03-29T04:12:35;2.72;;;1.30;;
84476;SDS011;74700;43.228;0.108;2024-03-29T04:15:01;3.28;;;1.40;;
84476;SDS011;74700;43.228;0.108;2024-03-29T04:17:28;5.25;;;1.95;;
84476;SDS011;74700;43.228;0.108;2024-03-29T04:19:55;2.35;;;1.13;;
84476;SDS011;74700;43.228;0.108;2024-03-29T04:22:21;1.38;;;1.20;;
84476;SDS011;74700;43.228;0.108;2024-03-29T04:24:48;1.92;;;1.40;;
84476;SDS011;74700;43.228;0.108;2024-03-29T04:27:14;2.53;;;1.77;;
84476;SDS011;74700;43.228;0.108;2024-03-29T04:29:40;1.88;;;1.70;;
84476;SDS011;74700;43.228;0.108;2024-03-29T04:32:06;5.18;;;2.30;;
84476;SDS011;74700;43.228;0.108;2024-03-29T04:34:33;3.20;;;1.85;;
84476;SDS011;74700;43.228;0.108;2024-03-29T04:36:59;3.13;;;1.70;;
84476;SDS011;74700;43.228;0.108;2024-03-29T04:39:25;4.38;;;2.08;;
84476;SDS011;74700;43.228;0.108;2024-03-29T04:41:51;4.18;;;1.35;;
84476;SDS011;74700;43.228;0.108;2024-03-29T04:44:24;2.25;;;1.25;;
84476;SDS011;74700;43.228;0.108;2024-03-29T04:46:50;3.60;;;1.70;;
84476;SDS011;74700;43.228;0.108;2024-03-29T04:49:22;2.08;;;1.65;;
84476;SDS011;74700;43.228;0.108;2024-03-29T04:52:14;3.00;;;2.00;;
84476;SDS011;74700;43.228;0.108;2024-03-29T04:54:41;2.58;;;1.77;;
84476;SDS011;74700;43.228;0.108;2024-03-29T04:57:09;2.55;;;1.63;;
84476;SDS011;74700;43.228;0.108;2024-03-29T04:59:37;9.02;;;1.95;;
84476;SDS011;74700;43.228;0.108;2024-03-29T05:02:03;2.05;;;1.65;;
84476;SDS011;74700;43.228;0.108;2024-03-29T05:04:30;3.58;;;1.83;;
84476;SDS011;74700;43.228;0.108;2024-03-29T05:06:56;1.77;;;1.63;;
84476;SDS011;74700;43.228;0.108;2024-03-29T05:09:23;1.98;;;1.70;;
84476;SDS011;74700;43.228;0.108;2024-03-29T05:11:49;4.07;;;1.73;;
84476;SDS011;74700;43.228;0.108;2024-03-29T05:14:15;9.68;;;2.35;;
84476;SDS011;74700;43.228;0.108;2024-03-29T05:16:43;3.63;;;1.83;;
84476;SDS011;74700;43.228;0.108;2024-03-29T05:19:10;2.08;;;1.85;;
84476;SDS011;74700;43.228;0.108;2024-03-29T05:21:36;3.45;;;1.80;;
84476;SDS011;74700;43.228;0.108;2024-03-29T05:24:02;2.15;;;2.00;;
84476;SDS011;74700;43.228;0.108;2024-03-29T05:26:28;11.43;;;4.20;;
84476;SDS011;74700;43.228;0.108;2024-03-29T05:28:55;9.15;;;4.10;;
84476;SDS011;74700;43.228;0.108;2024-03-29T05:31:22;4.78;;;2.78;;
84476;SDS011;74700;43.228;0.108;2024-03-29T05:33:48;2.38;;;1.70;;
84476;SDS011;74700;43.228;0.108;2024-03-29T05:36:15;3.92;;;1.85;;
84476;SDS011;74700;43.228;0.108;2024-03-29T05:38:41;5.43;;;2.10;;
84476;SDS011;74700;43.228;0.108;2024-03-29T05:41:07;6.10;;;2.85;;
84476;SDS011;74700;43.228;0.108;2024-03-29T05:43:33;4.60;;;2.38;;
84476;SDS011;74700;43.228;0.108;2024-03-29T05:45:59;3.67;;;1.42;;
84476;SDS011;74700;43.228;0.108;2024-03-29T05:48:28;2.22;;;1.85;;
84476;SDS011;74700;43.228;0.108;2024-03-29T05:50:55;5.03;;;1.92;;
84476;SDS011;74700;43.228;0.108;2024-03-29T05:53:21;4.55;;;2.05;;
84476;SDS011;74700;43.228;0.108;2024-03-29T05:55:47;2.78;;;2.45;;
84476;SDS011;74700;43.228;0.108;2024-03-29T05:58:13;5.50;;;1.50;;
84476;SDS011;74700;43.228;0.108;2024-03-29T06:00:43;2.20;;;1.73;;
84476;SDS011;74700;43.228;0.108;2024-03-29T06:03:09;4.10;;;1.80;;
84476;SDS011;74700;43.228;0.108;2024-03-29T06:05:35;17.13;;;2.22;;
84476;SDS011;74700;43.228;0.108;2024-03-29T06:08:01;3.75;;;2.00;;
84476;SDS011;74700;43.228;0.108;2024-03-29T06:10:27;1.63;;;1.50;;
84476;SDS011;74700;43.228;0.108;2024-03-29T06:12:54;4.93;;;1.88;;
84476;SDS011;74700;43.228;0.108;2024-03-29T06:15:20;3.58;;;2.30;;
84476;SDS011;74700;43.228;0.108;2024-03-29T06:18:04;6.35;;;1.90;;
84476;SDS011;74700;43.228;0.108;2024-03-29T06:20:30;3.80;;;1.98;;
84476;SDS011;74700;43.228;0.108;2024-03-29T06:22:58;2.40;;;1.70;;
84476;SDS011;74700;43.228;0.108;2024-03-29T06:25:24;3.92;;;2.28;;
84476;SDS011;74700;43.228;0.108;2024-03-29T06:27:50;3.13;;;2.25;;
84476;SDS011;74700;43.228;0.108;2024-03-29T06:30:16;4.82;;;2.20;;
84476;SDS011;74700;43.228;0.108;2024-03-29T06:32:42;2.85;;;2.65;;
84476;SDS011;74700;43.228;0.108;2024-03-29T06:35:10;7.15;;;2.28;;
84476;SDS011;74700;43.228;0.108;2024-03-29T06:37:36;4.63;;;2.10;;
84476;SDS011;74700;43.228;0.108;2024-03-29T06:40:02;2.67;;;2.00;;
84476;SDS011;74700;43.228;0.108;2024-03-29T06:42:28;3.60;;;2.15;;
84476;SDS011;74700;43.228;0.108;2024-03-29T06:44:55;2.88;;;2.20;;
84476;SDS011;74700;43.228;0.108;2024-03-29T06:47:21;3.42;;;2.60;;
84476;SDS011;74700;43.228;0.108;2024-03-29T06:49:47;3.72;;;2.38;;
84476;SDS011;74700;43.228;0.108;2024-03-29T06:52:13;4.97;;;2.67;;
84476;SDS011;74700;43.228;0.108;2024-03-29T06:54:39;3.20;;;2.38;;
84476;SDS011;74700;43.228;0.108;2024-03-29T06:57:05;4.20;;;2.20;;
84476;SDS011;74700;43.228;0.108;2024-03-29T06:59:33;4.43;;;2.72;;
84476;SDS011;74700;43.228;0.108;2024-03-29T07:01:59;4.03;;;2.60;;
84476;SDS011;74700;43.228;0.108;2024-03-29T07:04:25;3.63;;;2.33;;
84476;SDS011;74700;43.228;0.108;2024-03-29T07:06:53;5.20;;;3.05;;
84476;SDS011;74700;43.228;0.108;2024-03-29T07:09:19;10.93;;;2.78;;
84476;SDS011;74700;43.228;0.108;2024-03-29T07:11:46;8.43;;;3.03;;
84476;SDS011;74700;43.228;0.108;2024-03-29T07:14:13;2.67;;;1.92;;
84476;SDS011;74700;43.228;0.108;2024-03-29T07:16:40;6.15;;;2.25;;
84476;SDS011;74700;43.228;0.108;2024-03-29T07:19:06;4.18;;;1.48;;
84476;SDS011;74700;43.228;0.108;2024-03-29T07:21:32;5.38;;;1.98;;
84476;SDS011;74700;43.228;0.108;2024-03-29T07:23:58;3.00;;;1.45;;
84476;SDS011;74700;43.228;0.108;2024-03-29T07:26:24;3.67;;;1.60;;
84476;SDS011;74700;43.228;0.108;2024-03-29T07:28:50;5.47;;;1.63;;
84476;SDS011;74700;43.228;0.108;2024-03-29T07:31:16;6.00;;;1.95;;
84476;SDS011;74700;43.228;0.108;2024-03-29T07:33:42;6.60;;;1.95;;
84476;SDS011;74700;43.228;0.108;2024-03-29T07:36:08;3.60;;;1.60;;
84476;SDS011;74700;43.228;0.108;2024-03-29T07:38:36;5.28;;;2.03;;
84476;SDS011;74700;43.228;0.108;2024-03-29T07:41:03;9.80;;;2.10;;
84476;SDS011;74700;43.228;0.108;2024-03-29T07:43:40;8.85;;;2.03;;
84476;SDS011;74700;43.228;0.108;2024-03-29T07:46:07;6.85;;;1.70;;
84476;SDS011;74700;43.228;0.108;2024-03-29T07:48:34;10.98;;;2.65;;
84476;SDS011;74700;43.228;0.108;2024-03-29T07:51:01;4.32;;;1.85;;
84476;SDS011;74700;43.228;0.108;2024-03-29T07:53:27;6.93;;;2.08;;
84476;SDS011;74700;43.228;0.108;2024-03-29T07:55:53;5.47;;;2.10;;
84476;SDS011;74700;43.228;0.108;2024-03-29T07:58:20;7.15;;;1.90;;
84476;SDS011;74700;43.228;0.108;2024-03-29T08:00:46;10.13;;;1.88;;
84476;SDS011;74700;43.228;0.108;2024-03-29T08:03:12;6.57;;;1.98;;
84476;SDS011;74700;43.228;0.108;2024-03-29T08:05:39;6.30;;;1.70;;
84476;SDS011;74700;43.228;0.108;2024-03-29T08:08:07;9.05;;;1.92;;
84476;SDS011;74700;43.228;0.108;2024-03-29T08:10:33;16.33;;;3.08;;
84476;SDS011;74700;43.228;0.108;2024-03-29T08:12:59;12.75;;;2.70;;
84476;SDS011;74700;43.228;0.108;2024-03-29T08:15:26;12.80;;;2.20;;
84476;SDS011;74700;43.228;0.108;2024-03-29T08:17:52;14.88;;;2.17;;
84476;SDS011;74700;43.228;0.108;2024-03-29T08:20:18;8.13;;;2.15;;
84476;SDS011;74700;43.228;0.108;2024-03-29T08:22:44;11.45;;;2.55;;
84476;SDS011;74700;43.228;0.108;2024-03-29T08:25:10;9.88;;;2.08;;
84476;SDS011;74700;43.228;0.108;2024-03-29T08:27:36;7.47;;;2.38;;
84476;SDS011;74700;43.228;0.108;2024-03-29T08:30:04;10.52;;;2.50;;
84476;SDS011;74700;43.228;0.108;2024-03-29T08:32:30;12.65;;;2.85;;
84476;SDS011;74700;43.228;0.108;2024-03-29T08:34:57;12.82;;;2.88;;
84476;SDS011;74700;43.228;0.108;2024-03-29T08:37:23;15.50;;;2.40;;
84476;SDS011;74700;43.228;0.108;2024-03-29T08:39:49;8.23;;;2.53;;
84476;SDS011;74700;43.228;0.108;2024-03-29T08:42:15;9.65;;;2.80;;
84476;SDS011;74700;43.228;0.108;2024-03-29T08:44:41;11.30;;;2.83;;
84476;SDS011;74700;43.228;0.108;2024-03-29T08:47:07;7.72;;;2.30;;
84476;SDS011;74700;43.228;0.108;2024-03-29T08:49:35;15.27;;;2.85;;
84476;SDS011;74700;43.228;0.108;2024-03-29T08:52:01;10.88;;;2.03;;
84476;SDS011;74700;43.228;0.108;2024-03-29T08:54:30;10.80;;;2.20;;
84476;SDS011;74700;43.228;0.108;2024-03-29T08:56:56;7.88;;;2.20;;
84476;SDS011;74700;43.228;0.108;2024-03-29T08:59:22;11.00;;;2.30;;
84476;SDS011;74700;43.228;0.108;2024-03-29T09:01:48;5.63;;;2.08;;
84476;SDS011;74700;43.228;0.108;2024-03-29T09:04:14;9.27;;;2.40;;
84476;SDS011;74700;43.228;0.108;2024-03-29T09:06:41;9.07;;;2.22;;
84476;SDS011;74700;43.228;0.108;2024-03-29T09:09:07;9.90;;;2.40;;
84476;SDS011;74700;43.228;0.108;2024-03-29T09:11:33;7.97;;;1.90;;
84476;SDS011;74700;43.228;0.108;2024-03-29T09:13:59;11.60;;;3.28;;
84476;SDS011;74700;43.228;0.108;2024-03-29T09:16:27;12.63;;;3.53;;
84476;SDS011;74700;43.228;0.108;2024-03-29T09:18:55;9.93;;;2.78;;
84476;SDS011;74700;43.228;0.108;2024-03-29T09:21:21;14.52;;;2.78;;
84476;SDS011;74700;43.228;0.108;2024-03-29T09:23:47;11.23;;;3.38;;
84476;SDS011;74700;43.228;0.108;2024-03-29T09:26:15;16.13;;;3.53;;
84476;SDS011;74700;43.228;0.108;2024-03-29T09:28:42;13.32;;;3.25;;
84476;SDS011;74700;43.228;0.108;2024-03-29T09:31:08;11.77;;;3.38;;
84476;SDS011;74700;43.228;0.108;2024-03-29T09:33:34;16.55;;;3.78;;
84476;SDS011;74700;43.228;0.108;2024-03-29T09:36:00;12.93;;;3.63;;
84476;SDS011;74700;43.228;0.108;2024-03-29T09:38:28;20.67;;;3.47;;
84476;SDS011;74700;43.228;0.108;2024-03-29T09:41:15;13.82;;;3.25;;
84476;SDS011;74700;43.228;0.108;2024-03-29T09:43:41;12.18;;;3.10;;
84476;SDS011;74700;43.228;0.108;2024-03-29T09:46:10;12.02;;;3.22;;
84476;SDS011;74700;43.228;0.108;2024-03-29T09:48:37;15.20;;;3.53;;
84476;SDS011;74700;43.228;0.108;2024-03-29T09:51:06;11.73;;;3.20;;
84476;SDS011;74700;43.228;0.108;2024-03-29T09:53:36;15.68;;;3.33;;
84476;SDS011;74700;43.228;0.108;2024-03-29T09:56:03;14.68;;;4.10;;
84476;SDS011;74700;43.228;0.108;2024-03-29T09:58:33;14.88;;;3.80;;
84476;SDS011;74700;43.228;0.108;2024-03-29T10:01:00;15.82;;;3.63;;
84476;SDS011;74700;43.228;0.108;2024-03-29T10:03:28;17.58;;;3.55;;
84476;SDS011;74700;43.228;0.108;2024-03-29T10:06:00;15.30;;;3.85;;
84476;SDS011;74700;43.228;0.108;2024-03-29T10:08:28;8.88;;;2.67;;
84476;SDS011;74700;43.228;0.108;2024-03-29T10:10:55;12.48;;;3.67;;
84476;SDS011;74700;43.228;0.108;2024-03-29T10:13:21;11.70;;;3.35;;
84476;SDS011;74700;43.228;0.108;2024-03-29T10:15:51;12.70;;;3.47;;
84476;SDS011;74700;43.228;0.108;2024-03-29T10:18:20;16.88;;;4.20;;
84476;SDS011;74700;43.228;0.108;2024-03-29T10:20:46;23.08;;;5.00;;
84476;SDS011;74700;43.228;0.108;2024-03-29T10:23:14;18.85;;;5.00;;
84476;SDS011;74700;43.228;0.108;2024-03-29T10:25:42;17.75;;;4.20;;
84476;SDS011;74700;43.228;0.108;2024-03-29T10:28:08;22.85;;;4.72;;
84476;SDS011;74700;43.228;0.108;2024-03-29T10:30:34;18.27;;;4.60;;
84476;SDS011;74700;43.228;0.108;2024-03-29T10:33:00;20.95;;;4.10;;
84476;SDS011;74700;43.228;0.108;2024-03-29T10:35:26;21.45;;;4.15;;
84476;SDS011;74700;43.228;0.108;2024-03-29T10:37:53;16.88;;;4.32;;
84476;SDS011;74700;43.228;0.108;2024-03-29T10:40:20;23.30;;;4.57;;
84476;SDS011;74700;43.228;0.108;2024-03-29T10:42:47;17.58;;;4.28;;
84476;SDS011;74700;43.228;0.108;2024-03-29T10:45:14;23.00;;;4.93;;
84476;SDS011;74700;43.228;0.108;2024-03-29T10:47:42;26.42;;;5.10;;
84476;SDS011;74700;43.228;0.108;2024-03-29T10:50:12;24.13;;;4.28;;
84476;SDS011;74700;43.228;0.108;2024-03-29T10:52:41;25.40;;;4.43;;
84476;SDS011;74700;43.228;0.108;2024-03-29T10:55:09;18.52;;;3.47;;
84476;SDS011;74700;43.228;0.108;2024-03-29T10:57:36;19.85;;;3.83;;
84476;SDS011;74700;43.228;0.108;2024-03-29T11:04:58;19.70;;;3.78;;
84476;SDS011;74700;43.228;0.108;2024-03-29T11:07:25;14.65;;;4.38;;
84476;SDS011;74700;43.228;0.108;2024-03-29T11:09:52;18.50;;;4.18;;
84476;SDS011;74700;43.228;0.108;2024-03-29T11:12:22;10.88;;;3.28;;
84476;SDS011;74700;43.228;0.108;2024-03-29T11:14:53;19.98;;;3.47;;
84476;SDS011;74700;43.228;0.108;2024-03-29T11:17:22;19.52;;;4.07;;
84476;SDS011;74700;43.228;0.108;2024-03-29T11:19:48;14.07;;;3.78;;
84476;SDS011;74700;43.228;0.108;2024-03-29T11:22:14;17.38;;;4.05;;
84476;SDS011;74700;43.228;0.108;2024-03-29T11:24:41;15.55;;;3.88;;
84476;SDS011;74700;43.228;0.108;2024-03-29T11:27:08;18.90;;;3.42;;
84476;SDS011;74700;43.228;0.108;2024-03-29T11:29:34;19.25;;;3.65;;
84476;SDS011;74700;43.228;0.108;2024-03-29T11:32:05;18.83;;;3.70;;
84476;SDS011;74700;43.228;0.108;2024-03-29T11:34:31;10.43;;;3.20;;
84476;SDS011;74700;43.228;0.108;2024-03-29T11:37:16;12.57;;;2.58;;
84476;SDS011;74700;43.228;0.108;2024-03-29T11:39:46;16.85;;;3.63;;
84476;SDS011;74700;43.228;0.108;2024-03-29T11:42:13;11.43;;;3.42;;
84476;SDS011;74700;43.228;0.108;2024-03-29T11:44:39;15.32;;;3.90;;
84476;SDS011;74700;43.228;0.108;2024-03-29T11:47:05;13.25;;;3.53;;
84476;SDS011;74700;43.228;0.108;2024-03-29T11:49:32;10.07;;;2.70;;
84476;SDS011;74700;43.228;0.108;2024-03-29T11:52:04;12.80;;;3.38;;
84476;SDS011;74700;43.228;0.108;2024-03-29T11:54:37;15.18;;;3.45;;
84476;SDS011;74700;43.228;0.108;2024-03-29T11:57:03;6.85;;;2.67;;
84476;SDS011;74700;43.228;0.108;2024-03-29T11:59:29;6.93;;;2.92;;
84476;SDS011;74700;43.228;0.108;2024-03-29T12:01:56;11.48;;;2.50;;
84476;SDS011;74700;43.228;0.108;2024-03-29T12:04:22;10.30;;;2.88;;
84476;SDS011;74700;43.228;0.108;2024-03-29T12:06:49;7.30;;;2.28;;
84476;SDS011;74700;43.228;0.108;2024-03-29T12:09:15;4.10;;;2.17;;
84476;SDS011;74700;43.228;0.108;2024-03-29T12:11:43;8.45;;;1.75;;
84476;SDS011;74700;43.228;0.108;2024-03-29T12:14:13;3.67;;;1.52;;
84476;SDS011;74700;43.228;0.108;2024-03-29T12:16:43;7.22;;;2.03;;
84476;SDS011;74700;43.228;0.108;2024-03-29T12:19:09;5.43;;;1.38;;
84476;SDS011;74700;43.228;0.108;2024-03-29T12:21:35;1.52;;;1.27;;
84476;SDS011;74700;43.228;0.108;2024-03-29T12:24:02;4.47;;;1.42;;
84476;SDS011;74700;43.228;0.108;2024-03-29T12:26:28;3.17;;;1.58;;
84476;SDS011;74700;43.228;0.108;2024-03-29T12:28:56;3.35;;;1.67;;
84476;SDS011;74700;43.228;0.108;2024-03-29T12:31:22;14.43;;;1.50;;
84476;SDS011;74700;43.228;0.108;2024-03-29T12:33:51;11.13;;;1.83;;
84476;SDS011;74700;43.228;0.108;2024-03-29T12:36:18;5.70;;;1.73;;
84476;SDS011;74700;43.228;0.108;2024-03-29T12:38:45;10.55;;;1.40;;
84476;SDS011;74700;43.228;0.108;2024-03-29T12:41:17;4.22;;;1.55;;
84476;SDS011;74700;43.228;0.108;2024-03-29T12:43:43;3.50;;;1.65;;
84476;SDS011;74700;43.228;0.108;2024-03-29T12:46:10;2.53;;;1.52;;
84476;SDS011;74700;43.228;0.108;2024-03-29T12:48:37;2.72;;;1.63;;
84476;SDS011;74700;43.228;0.108;2024-03-29T12:51:04;3.17;;;2.40;;
84476;SDS011;74700;43.228;0.108;2024-03-29T12:53:32;6.55;;;2.40;;
84476;SDS011;74700;43.228;0.108;2024-03-29T12:55:58;6.85;;;1.77;;
84476;SDS011;74700;43.228;0.108;2024-03-29T12:58:25;1.50;;;1.38;;
84476;SDS011;74700;43.228;0.108;2024-03-29T13:00:51;2.17;;;1.17;;
84476;SDS011;74700;43.228;0.108;2024-03-29T13:03:17;5.53;;;2.03;;
84476;SDS011;74700;43.228;0.108;2024-03-29T13:05:43;4.70;;;2.25;;
84476;SDS011;74700;43.228;0.108;2024-03-29T13:08:10;3.40;;;1.73;;
84476;SDS011;74700;43.228;0.108;2024-03-29T13:10:37;7.70;;;1.52;;
84476;SDS011;74700;43.228;0.108;2024-03-29T13:13:04;3.50;;;2.17;;
84476;SDS011;74700;43.228;0.108;2024-03-29T13:15:32;6.55;;;1.70;;
84476;SDS011;74700;43.228;0.108;2024-03-29T13:17:58;2.30;;;1.70;;
84476;SDS011;74700;43.228;0.108;2024-03-29T13:20:25;4.60;;;2.00;;
84476;SDS011;74700;43.228;0.108;2024-03-29T13:22:51;2.08;;;1.70;;
84476;SDS011;74700;43.228;0.108;2024-03-29T13:25:19;4.25;;;1.85;;
84476;SDS011;74700;43.228;0.108;2024-03-29T13:27:50;7.80;;;2.40;;
84476;SDS011;74700;43.228;0.108;2024-03-29T13:30:18;3.05;;;1.77;;
84476;SDS011;74700;43.228;0.108;2024-03-29T13:32:45;3.05;;;1.90;;
84476;SDS011;74700;43.228;0.108;2024-03-29T13:35:11;6.07;;;1.95;;
84476;SDS011;74700;43.228;0.108;2024-03-29T13:37:41;3.78;;;1.90;;
84476;SDS011;74700;43.228;0.108;2024-03-29T13:40:17;2.15;;;1.95;;
84476;SDS011;74700;43.228;0.108;2024-03-29T13:42:43;4.28;;;2.63;;
84476;SDS011;74700;43.228;0.108;2024-03-29T13:45:10;2.97;;;2.00;;
84476;SDS011;74700;43.228;0.108;2024-03-29T13:47:36;1.83;;;1.70;;
84476;SDS011;74700;43.228;0.108;2024-03-29T13:50:05;4.97;;;2.00;;
84476;SDS011;74700;43.228;0.108;2024-03-29T13:52:31;1.67;;;1.58;;
84476;SDS011;74700;43.228;0.108;2024-03-29T13:54:58;2.63;;;1.65;;
84476;SDS011;74700;43.228;0.108;2024-03-29T13:57:24;1.98;;;1.77;;
84476;SDS011;74700;43.228;0.108;2024-03-29T13:59:51;3.05;;;1.50;;
84476;SDS011;74700;43.228;0.108;2024-03-29T14:02:18;1.65;;;1.55;;
84476;SDS011;74700;43.228;0.108;2024-03-29T14:04:45;7.43;;;1.60;;
84476;SDS011;74700;43.228;0.108;2024-03-29T14:07:12;1.17;;;1.17;;
84476;SDS011;74700;43.228;0.108;2024-03-29T14:09:39;1.83;;;1.70;;
84476;SDS011;74700;43.228;0.108;2024-03-29T14:12:05;2.53;;;1.50;;
84476;SDS011;74700;43.228;0.108;2024-03-29T14:14:32;3.35;;;1.60;;
84476;SDS011;74700;43.228;0.108;2024-03-29T14:16:58;6.20;;;1.63;;
84476;SDS011;74700;43.228;0.108;2024-03-29T14:19:32;4.68;;;1.83;;
84476;SDS011;74700;43.228;0.108;2024-03-29T14:21:59;5.88;;;2.05;;
84476;SDS011;74700;43.228;0.108;2024-03-29T14:24:25;2.38;;;1.80;;
84476;SDS011;74700;43.228;0.108;2024-03-29T14:26:53;1.67;;;1.58;;
84476;SDS011;74700;43.228;0.108;2024-03-29T14:29:20;2.65;;;1.92;;
84476;SDS011;74700;43.228;0.108;2024-03-29T14:31:47;3.67;;;1.70;;
84476;SDS011;74700;43.228;0.108;2024-03-29T14:34:15;4.03;;;2.30;;
84476;SDS011;74700;43.228;0.108;2024-03-29T14:36:41;4.30;;;2.38;;
84476;SDS011;74700;43.228;0.108;2024-03-29T14:39:08;2.45;;;1.55;;
84476;SDS011;74700;43.228;0.108;2024-03-29T14:41:34;2.20;;;1.60;;
84476;SDS011;74700;43.228;0.108;2024-03-29T14:44:04;1.95;;;1.75;;
84476;SDS011;74700;43.228;0.108;2024-03-29T14:46:30;6.07;;;1.90;;
84476;SDS011;74700;43.228;0.108;2024-03-29T14:48:56;1.92;;;1.73;;